sensor_id;sensor_type;location;lat;lon;timestamp;P1;durP1;ratioP1;P2;durP2;ratioP2
62457;SDS011;48509;52.122;5.250;2023-09-08T00:00:15;10.21;;;8.71;;
62457;SDS011;48509;52.122;5.250;2023-09-08T00:03:27;10.7;;;9.6;;
62457;SDS011;48509;52.122;5.250;2023-09-08T00:05:03;11.7;;;9.4;;
62457;SDS011;48509;52.122;5.250;2023-09-08T00:06:39;14.1;;;9.21;;
62457;SDS011;48509;52.122;5.250;2023-09-08T00:09:52;14.8;;;9.9;;
62457;SDS011;48509;52.122;5.250;2023-09-08T00:11:28;11.3;;;9.71;;
62457;SDS011;48509;52.122;5.250;2023-09-08T00:13:04;11.2;;;8.81;;
62457;SDS011;48509;52.122;5.250;2023-09-08T00:14:40;13.2;;;9.5;;
62457;SDS011;48509;52.122;5.250;2023-09-08T00:17:52;11.1;;;9.6;;
62457;SDS011;48509;52.122;5.250;2023-09-08T00:19:28;10.6;;;9.31;;
62457;SDS011;48509;52.122;5.250;2023-09-08T00:21:04;12.5;;;9.4;;
62457;SDS011;48509;52.122;5.250;2023-09-08T00:24:17;12.9;;;9.5;;
62457;SDS011;48509;52.122;5.250;2023-09-08T00:25:54;13.6;;;10.3;;
62457;SDS011;48509;52.122;5.250;2023-09-08T00:27:30;11.3;;;10.1;;
62457;SDS011;48509;52.122;5.250;2023-09-08T00:30:42;12.5;;;10.0;;
62457;SDS011;48509;52.122;5.250;2023-09-08T00:32:18;11.7;;;10.1;;
62457;SDS011;48509;52.122;5.250;2023-09-08T00:33:54;10.7;;;9.31;;
62457;SDS011;48509;52.122;5.250;2023-09-08T00:35:30;11.7;;;10.5;;
62457;SDS011;48509;52.122;5.250;2023-09-08T00:38:42;13.7;;;10.0;;
62457;SDS011;48509;52.122;5.250;2023-09-08T00:40:19;11.2;;;9.5;;
62457;SDS011;48509;52.122;5.250;2023-09-08T00:41:55;10.21;;;9.0;;
62457;SDS011;48509;52.122;5.250;2023-09-08T00:45:07;11.0;;;9.6;;
62457;SDS011;48509;52.122;5.250;2023-09-08T00:46:44;10.6;;;9.5;;
62457;SDS011;48509;52.122;5.250;2023-09-08T00:48:20;12.8;;;9.31;;
62457;SDS011;48509;52.122;5.250;2023-09-08T00:51:32;11.2;;;10.1;;
62457;SDS011;48509;52.122;5.250;2023-09-08T00:53:09;11.1;;;9.9;;
62457;SDS011;48509;52.122;5.250;2023-09-08T00:54:46;10.21;;;9.0;;
62457;SDS011;48509;52.122;5.250;2023-09-08T00:57:59;15.7;;;10.1;;
62457;SDS011;48509;52.122;5.250;2023-09-08T00:59:36;10.8;;;9.71;;
62457;SDS011;48509;52.122;5.250;2023-09-08T01:01:13;11.9;;;9.6;;
62457;SDS011;48509;52.122;5.250;2023-09-08T01:02:49;11.2;;;9.1;;
62457;SDS011;48509;52.122;5.250;2023-09-08T01:06:01;11.2;;;9.1;;
62457;SDS011;48509;52.122;5.250;2023-09-08T01:07:38;13.5;;;9.81;;
62457;SDS011;48509;52.122;5.250;2023-09-08T01:09:15;11.2;;;10.1;;
62457;SDS011;48509;52.122;5.250;2023-09-08T01:12:28;14.6;;;10.1;;
62457;SDS011;48509;52.122;5.250;2023-09-08T01:14:04;10.7;;;9.6;;
62457;SDS011;48509;52.122;5.250;2023-09-08T01:15:40;12.7;;;10.1;;
62457;SDS011;48509;52.122;5.250;2023-09-08T01:18:52;10.9;;;9.21;;
62457;SDS011;48509;52.122;5.250;2023-09-08T01:20:38;12.5;;;10.3;;
62457;SDS011;48509;52.122;5.250;2023-09-08T01:22:44;10.9;;;9.1;;
62457;SDS011;48509;52.122;5.250;2023-09-08T01:24:37;11.7;;;9.81;;
62457;SDS011;48509;52.122;5.250;2023-09-08T01:26:43;10.9;;;9.71;;
62457;SDS011;48509;52.122;5.250;2023-09-08T01:28:19;10.6;;;9.4;;
62457;SDS011;48509;52.122;5.250;2023-09-08T01:29:57;12.0;;;10.3;;
62457;SDS011;48509;52.122;5.250;2023-09-08T01:33:12;11.2;;;10.0;;
62457;SDS011;48509;52.122;5.250;2023-09-08T01:34:49;15.8;;;10.1;;
62457;SDS011;48509;52.122;5.250;2023-09-08T01:39:38;11.4;;;10.21;;
62457;SDS011;48509;52.122;5.250;2023-09-08T01:41:14;12.0;;;10.1;;
62457;SDS011;48509;52.122;5.250;2023-09-08T01:42:51;11.9;;;10.21;;
62457;SDS011;48509;52.122;5.250;2023-09-08T01:46:03;11.3;;;9.81;;
62457;SDS011;48509;52.122;5.250;2023-09-08T01:47:39;12.1;;;9.81;;
62457;SDS011;48509;52.122;5.250;2023-09-08T01:49:15;12.3;;;9.5;;
62457;SDS011;48509;52.122;5.250;2023-09-08T01:50:51;11.7;;;10.3;;
62457;SDS011;48509;52.122;5.250;2023-09-08T01:54:04;10.9;;;9.81;;
62457;SDS011;48509;52.122;5.250;2023-09-08T01:55:40;17.5;;;9.6;;
62457;SDS011;48509;52.122;5.250;2023-09-08T01:57:16;10.8;;;9.71;;
62457;SDS011;48509;52.122;5.250;2023-09-08T02:00:29;13.1;;;9.71;;
62457;SDS011;48509;52.122;5.250;2023-09-08T02:02:05;13.0;;;10.0;;
62457;SDS011;48509;52.122;5.250;2023-09-08T02:03:41;12.2;;;10.6;;
62457;SDS011;48509;52.122;5.250;2023-09-08T02:06:53;11.9;;;10.4;;
62457;SDS011;48509;52.122;5.250;2023-09-08T02:08:29;11.1;;;9.81;;
62457;SDS011;48509;52.122;5.250;2023-09-08T02:10:06;12.5;;;9.5;;
62457;SDS011;48509;52.122;5.250;2023-09-08T02:13:18;11.3;;;9.71;;
62457;SDS011;48509;52.122;5.250;2023-09-08T02:14:54;11.1;;;9.71;;
62457;SDS011;48509;52.122;5.250;2023-09-08T02:16:30;11.1;;;9.71;;
62457;SDS011;48509;52.122;5.250;2023-09-08T02:18:06;10.8;;;9.21;;
62457;SDS011;48509;52.122;5.250;2023-09-08T02:21:19;11.2;;;10.0;;
62457;SDS011;48509;52.122;5.250;2023-09-08T02:22:57;11.7;;;10.5;;
62457;SDS011;48509;52.122;5.250;2023-09-08T02:24:38;11.9;;;10.7;;
62457;SDS011;48509;52.122;5.250;2023-09-08T02:27:51;11.1;;;9.9;;
62457;SDS011;48509;52.122;5.250;2023-09-08T02:29:27;12.6;;;11.3;;
62457;SDS011;48509;52.122;5.250;2023-09-08T02:31:03;12.9;;;10.21;;
62457;SDS011;48509;52.122;5.250;2023-09-08T02:32:39;12.9;;;10.21;;
62457;SDS011;48509;52.122;5.250;2023-09-08T02:35:51;13.6;;;10.4;;
62457;SDS011;48509;52.122;5.250;2023-09-08T02:37:27;12.0;;;10.7;;
62457;SDS011;48509;52.122;5.250;2023-09-08T02:39:03;11.9;;;9.71;;
62457;SDS011;48509;52.122;5.250;2023-09-08T02:42:16;15.4;;;10.6;;
62457;SDS011;48509;52.122;5.250;2023-09-08T02:43:52;12.2;;;10.9;;
62457;SDS011;48509;52.122;5.250;2023-09-08T02:45:28;11.6;;;9.9;;
62457;SDS011;48509;52.122;5.250;2023-09-08T02:48:43;11.6;;;10.4;;
62457;SDS011;48509;52.122;5.250;2023-09-08T02:50:19;14.8;;;10.7;;
62457;SDS011;48509;52.122;5.250;2023-09-08T02:51:55;13.5;;;11.1;;
62457;SDS011;48509;52.122;5.250;2023-09-08T02:55:08;12.8;;;11.2;;
62457;SDS011;48509;52.122;5.250;2023-09-08T02:56:44;12.7;;;10.0;;
62457;SDS011;48509;52.122;5.250;2023-09-08T02:58:21;11.2;;;10.1;;
62457;SDS011;48509;52.122;5.250;2023-09-08T02:59:57;11.2;;;10.1;;
62457;SDS011;48509;52.122;5.250;2023-09-08T03:03:10;11.9;;;10.7;;
62457;SDS011;48509;52.122;5.250;2023-09-08T03:04:46;12.5;;;10.3;;
62457;SDS011;48509;52.122;5.250;2023-09-08T03:06:23;13.1;;;11.0;;
62457;SDS011;48509;52.122;5.250;2023-09-08T03:09:35;12.5;;;10.3;;
62457;SDS011;48509;52.122;5.250;2023-09-08T03:11:11;13.9;;;10.8;;
62457;SDS011;48509;52.122;5.250;2023-09-08T03:12:48;12.8;;;10.8;;
62457;SDS011;48509;52.122;5.250;2023-09-08T03:16:02;11.7;;;10.5;;
62457;SDS011;48509;52.122;5.250;2023-09-08T03:17:39;13.5;;;10.9;;
62457;SDS011;48509;52.122;5.250;2023-09-08T03:19:15;11.4;;;10.3;;
62457;SDS011;48509;52.122;5.250;2023-09-08T03:20:52;14.2;;;10.9;;
62457;SDS011;48509;52.122;5.250;2023-09-08T03:24:04;14.4;;;10.8;;
62457;SDS011;48509;52.122;5.250;2023-09-08T03:25:41;12.2;;;10.9;;
62457;SDS011;48509;52.122;5.250;2023-09-08T03:27:17;11.4;;;10.3;;
62457;SDS011;48509;52.122;5.250;2023-09-08T03:30:29;12.9;;;11.3;;
62457;SDS011;48509;52.122;5.250;2023-09-08T03:32:05;12.9;;;11.3;;
62457;SDS011;48509;52.122;5.250;2023-09-08T03:33:42;12.6;;;11.3;;
62457;SDS011;48509;52.122;5.250;2023-09-08T03:36:54;13.0;;;11.6;;
62457;SDS011;48509;52.122;5.250;2023-09-08T03:38:30;12.0;;;10.7;;
62457;SDS011;48509;52.122;5.250;2023-09-08T03:40:06;13.2;;;10.3;;
62457;SDS011;48509;52.122;5.250;2023-09-08T03:41:43;12.4;;;11.1;;
62457;SDS011;48509;52.122;5.250;2023-09-08T03:44:55;14.8;;;11.2;;
62457;SDS011;48509;52.122;5.250;2023-09-08T03:46:31;12.2;;;10.9;;
62457;SDS011;48509;52.122;5.250;2023-09-08T03:48:07;14.3;;;11.3;;
62457;SDS011;48509;52.122;5.250;2023-09-08T03:51:20;13.6;;;10.6;;
62457;SDS011;48509;52.122;5.250;2023-09-08T03:52:56;14.7;;;12.8;;
62457;SDS011;48509;52.122;5.250;2023-09-08T03:54:32;13.4;;;11.4;;
62457;SDS011;48509;52.122;5.250;2023-09-08T03:57:44;14.2;;;11.3;;
62457;SDS011;48509;52.122;5.250;2023-09-08T03:59:20;13.1;;;11.5;;
62457;SDS011;48509;52.122;5.250;2023-09-08T04:00:56;13.1;;;11.1;;
62457;SDS011;48509;52.122;5.250;2023-09-08T04:04:08;13.9;;;12.5;;
62457;SDS011;48509;52.122;5.250;2023-09-08T04:05:45;12.8;;;11.4;;
62457;SDS011;48509;52.122;5.250;2023-09-08T04:07:21;14.8;;;11.5;;
62457;SDS011;48509;52.122;5.250;2023-09-08T04:08:57;14.8;;;11.4;;
62457;SDS011;48509;52.122;5.250;2023-09-08T04:12:09;12.7;;;11.4;;
62457;SDS011;48509;52.122;5.250;2023-09-08T04:13:45;14.5;;;10.9;;
62457;SDS011;48509;52.122;5.250;2023-09-08T04:15:21;13.2;;;11.5;;
62457;SDS011;48509;52.122;5.250;2023-09-08T04:18:33;13.4;;;12.0;;
62457;SDS011;48509;52.122;5.250;2023-09-08T04:20:10;13.8;;;11.8;;
62457;SDS011;48509;52.122;5.250;2023-09-08T04:21:47;14.2;;;11.8;;
62457;SDS011;48509;52.122;5.250;2023-09-08T04:25:00;16.3;;;12.2;;
62457;SDS011;48509;52.122;5.250;2023-09-08T04:26:36;14.3;;;12.6;;
62457;SDS011;48509;52.122;5.250;2023-09-08T04:28:12;13.5;;;12.2;;
62457;SDS011;48509;52.122;5.250;2023-09-08T04:29:48;15.3;;;11.9;;
62457;SDS011;48509;52.122;5.250;2023-09-08T04:33:00;13.8;;;12.4;;
62457;SDS011;48509;52.122;5.250;2023-09-08T04:34:37;13.9;;;11.7;;
62457;SDS011;48509;52.122;5.250;2023-09-08T04:36:16;16.3;;;12.2;;
62457;SDS011;48509;52.122;5.250;2023-09-08T04:39:28;13.4;;;11.7;;
62457;SDS011;48509;52.122;5.250;2023-09-08T04:41:04;16.0;;;12.8;;
62457;SDS011;48509;52.122;5.250;2023-09-08T04:42:40;14.9;;;12.5;;
62457;SDS011;48509;52.122;5.250;2023-09-08T04:45:52;15.3;;;11.7;;
62457;SDS011;48509;52.122;5.250;2023-09-08T04:47:28;15.0;;;11.6;;
62457;SDS011;48509;52.122;5.250;2023-09-08T04:49:04;14.1;;;12.6;;
62457;SDS011;48509;52.122;5.250;2023-09-08T04:52:16;13.5;;;12.2;;
62457;SDS011;48509;52.122;5.250;2023-09-08T04:53:52;13.9;;;12.0;;
62457;SDS011;48509;52.122;5.250;2023-09-08T04:55:28;15.9;;;12.6;;
62457;SDS011;48509;52.122;5.250;2023-09-08T04:57:05;26.9;;;13.5;;
62457;SDS011;48509;52.122;5.250;2023-09-08T05:00:17;14.5;;;13.0;;
62457;SDS011;48509;52.122;5.250;2023-09-08T05:01:53;14.2;;;12.2;;
62457;SDS011;48509;52.122;5.250;2023-09-08T05:03:30;14.8;;;11.9;;
62457;SDS011;48509;52.122;5.250;2023-09-08T05:06:43;18.91;;;12.7;;
62457;SDS011;48509;52.122;5.250;2023-09-08T05:08:19;14.2;;;12.1;;
62457;SDS011;48509;52.122;5.250;2023-09-08T05:09:54;14.3;;;12.8;;
62457;SDS011;48509;52.122;5.250;2023-09-08T05:13:07;14.2;;;12.8;;
62457;SDS011;48509;52.122;5.250;2023-09-08T05:14:43;15.1;;;12.6;;
62457;SDS011;48509;52.122;5.250;2023-09-08T05:16:19;14.3;;;12.8;;
62457;SDS011;48509;52.122;5.250;2023-09-08T05:17:56;15.1;;;12.8;;
62457;SDS011;48509;52.122;5.250;2023-09-08T05:21:08;16.8;;;12.9;;
62457;SDS011;48509;52.122;5.250;2023-09-08T05:22:44;14.5;;;11.9;;
62457;SDS011;48509;52.122;5.250;2023-09-08T05:24:20;15.9;;;13.4;;
62457;SDS011;48509;52.122;5.250;2023-09-08T05:27:34;17.7;;;12.5;;
62457;SDS011;48509;52.122;5.250;2023-09-08T05:29:10;14.5;;;12.8;;
62457;SDS011;48509;52.122;5.250;2023-09-08T05:30:46;15.2;;;13.2;;
62457;SDS011;48509;52.122;5.250;2023-09-08T05:33:59;14.5;;;12.3;;
62457;SDS011;48509;52.122;5.250;2023-09-08T05:35:35;14.7;;;12.4;;
62457;SDS011;48509;52.122;5.250;2023-09-08T05:37:12;14.7;;;12.4;;
62457;SDS011;48509;52.122;5.250;2023-09-08T05:40:24;13.7;;;12.3;;
62457;SDS011;48509;52.122;5.250;2023-09-08T05:42:00;15.0;;;13.4;;
62457;SDS011;48509;52.122;5.250;2023-09-08T05:43:37;13.5;;;11.7;;
62457;SDS011;48509;52.122;5.250;2023-09-08T05:45:12;17.11;;;12.6;;
62457;SDS011;48509;52.122;5.250;2023-09-08T05:48:25;14.8;;;13.2;;
62457;SDS011;48509;52.122;5.250;2023-09-08T05:50:01;15.9;;;13.3;;
62457;SDS011;48509;52.122;5.250;2023-09-08T05:51:37;14.1;;;12.2;;
62457;SDS011;48509;52.122;5.250;2023-09-08T05:54:49;14.1;;;12.7;;
62457;SDS011;48509;52.122;5.250;2023-09-08T05:56:26;15.1;;;13.4;;
62457;SDS011;48509;52.122;5.250;2023-09-08T05:58:05;20.41;;;13.9;;
62457;SDS011;48509;52.122;5.250;2023-09-08T06:01:17;13.6;;;11.9;;
62457;SDS011;48509;52.122;5.250;2023-09-08T06:02:53;13.8;;;12.3;;
62457;SDS011;48509;52.122;5.250;2023-09-08T06:04:30;14.4;;;12.3;;
62457;SDS011;48509;52.122;5.250;2023-09-08T06:06:06;16.2;;;12.5;;
62457;SDS011;48509;52.122;5.250;2023-09-08T06:09:18;16.3;;;13.3;;
62457;SDS011;48509;52.122;5.250;2023-09-08T06:10:54;15.4;;;12.1;;
62457;SDS011;48509;52.122;5.250;2023-09-08T06:12:30;16.2;;;13.0;;
62457;SDS011;48509;52.122;5.250;2023-09-08T06:15:42;15.8;;;12.5;;
62457;SDS011;48509;52.122;5.250;2023-09-08T06:17:18;15.4;;;13.1;;
62457;SDS011;48509;52.122;5.250;2023-09-08T06:18:55;15.5;;;12.9;;
62457;SDS011;48509;52.122;5.250;2023-09-08T06:22:07;17.0;;;13.0;;
62457;SDS011;48509;52.122;5.250;2023-09-08T06:23:43;17.11;;;12.7;;
62457;SDS011;48509;52.122;5.250;2023-09-08T06:25:21;15.8;;;12.9;;
62457;SDS011;48509;52.122;5.250;2023-09-08T06:26:57;14.3;;;12.2;;
62457;SDS011;48509;52.122;5.250;2023-09-08T06:30:10;14.6;;;12.3;;
62457;SDS011;48509;52.122;5.250;2023-09-08T06:31:46;14.4;;;12.9;;
62457;SDS011;48509;52.122;5.250;2023-09-08T06:33:22;15.8;;;13.5;;
62457;SDS011;48509;52.122;5.250;2023-09-08T06:36:35;16.2;;;12.2;;
62457;SDS011;48509;52.122;5.250;2023-09-08T06:38:11;16.9;;;13.0;;
62457;SDS011;48509;52.122;5.250;2023-09-08T06:39:47;16.0;;;12.5;;
62457;SDS011;48509;52.122;5.250;2023-09-08T06:42:59;15.0;;;13.1;;
62457;SDS011;48509;52.122;5.250;2023-09-08T06:44:35;16.5;;;13.0;;
62457;SDS011;48509;52.122;5.250;2023-09-08T06:46:11;14.1;;;12.6;;
62457;SDS011;48509;52.122;5.250;2023-09-08T06:49:23;15.6;;;11.9;;
62457;SDS011;48509;52.122;5.250;2023-09-08T06:51:00;14.7;;;12.2;;
62457;SDS011;48509;52.122;5.250;2023-09-08T06:52:36;15.1;;;12.8;;
62457;SDS011;48509;52.122;5.250;2023-09-08T06:54:12;14.5;;;11.8;;
62457;SDS011;48509;52.122;5.250;2023-09-08T06:57:24;13.5;;;11.1;;
62457;SDS011;48509;52.122;5.250;2023-09-08T06:59:00;15.2;;;12.0;;
62457;SDS011;48509;52.122;5.250;2023-09-08T07:00:36;14.5;;;11.8;;
62457;SDS011;48509;52.122;5.250;2023-09-08T07:03:48;14.8;;;12.1;;
62457;SDS011;48509;52.122;5.250;2023-09-08T07:05:24;13.4;;;11.0;;
62457;SDS011;48509;52.122;5.250;2023-09-08T07:07:01;13.7;;;11.3;;
62457;SDS011;48509;52.122;5.250;2023-09-08T07:10:13;14.2;;;11.9;;
62457;SDS011;48509;52.122;5.250;2023-09-08T07:11:49;14.8;;;11.8;;
62457;SDS011;48509;52.122;5.250;2023-09-08T07:13:25;17.91;;;12.0;;
62457;SDS011;48509;52.122;5.250;2023-09-08T07:16:39;13.1;;;11.4;;
62457;SDS011;48509;52.122;5.250;2023-09-08T07:18:15;16.7;;;11.8;;
62457;SDS011;48509;52.122;5.250;2023-09-08T07:19:52;14.7;;;12.0;;
62457;SDS011;48509;52.122;5.250;2023-09-08T07:21:28;12.4;;;10.8;;
62457;SDS011;48509;52.122;5.250;2023-09-08T07:24:42;15.2;;;12.8;;
62457;SDS011;48509;52.122;5.250;2023-09-08T07:26:18;13.6;;;10.8;;
62457;SDS011;48509;52.122;5.250;2023-09-08T07:27:54;12.6;;;10.8;;
62457;SDS011;48509;52.122;5.250;2023-09-08T07:31:06;13.5;;;11.3;;
62457;SDS011;48509;52.122;5.250;2023-09-08T07:32:42;13.5;;;9.9;;
62457;SDS011;48509;52.122;5.250;2023-09-08T07:34:18;15.7;;;11.8;;
62457;SDS011;48509;52.122;5.250;2023-09-08T07:37:30;11.8;;;10.5;;
62457;SDS011;48509;52.122;5.250;2023-09-08T07:39:06;13.9;;;12.4;;
62457;SDS011;48509;52.122;5.250;2023-09-08T07:40:43;13.5;;;11.4;;
62457;SDS011;48509;52.122;5.250;2023-09-08T07:42:19;12.5;;;9.81;;
62457;SDS011;48509;52.122;5.250;2023-09-08T07:45:31;12.1;;;10.7;;
62457;SDS011;48509;52.122;5.250;2023-09-08T07:47:07;11.1;;;8.9;;
62457;SDS011;48509;52.122;5.250;2023-09-08T07:48:43;12.3;;;9.5;;
62457;SDS011;48509;52.122;5.250;2023-09-08T07:51:57;12.6;;;9.5;;
62457;SDS011;48509;52.122;5.250;2023-09-08T07:53:33;10.3;;;9.0;;
62457;SDS011;48509;52.122;5.250;2023-09-08T07:55:09;13.2;;;11.3;;
62457;SDS011;48509;52.122;5.250;2023-09-08T07:58:22;14.8;;;11.2;;
62457;SDS011;48509;52.122;5.250;2023-09-08T07:59:58;14.6;;;11.3;;
62457;SDS011;48509;52.122;5.250;2023-09-08T08:01:34;14.2;;;10.5;;
62457;SDS011;48509;52.122;5.250;2023-09-08T08:04:46;9.71;;;8.81;;
62457;SDS011;48509;52.122;5.250;2023-09-08T08:06:22;9.0;;;8.0;;
62457;SDS011;48509;52.122;5.250;2023-09-08T08:07:58;13.9;;;9.31;;
62457;SDS011;48509;52.122;5.250;2023-09-08T08:09:34;10.9;;;8.81;;
62457;SDS011;48509;52.122;5.250;2023-09-08T08:12:47;10.8;;;8.6;;
62457;SDS011;48509;52.122;5.250;2023-09-08T08:14:25;11.8;;;9.81;;
62457;SDS011;48509;52.122;5.250;2023-09-08T08:16:01;14.1;;;10.21;;
62457;SDS011;48509;52.122;5.250;2023-09-08T08:19:14;13.8;;;9.4;;
62457;SDS011;48509;52.122;5.250;2023-09-08T08:20:50;12.0;;;8.2;;
62457;SDS011;48509;52.122;5.250;2023-09-08T08:22:26;12.7;;;8.4;;
62457;SDS011;48509;52.122;5.250;2023-09-08T08:25:39;11.1;;;8.4;;
62457;SDS011;48509;52.122;5.250;2023-09-08T08:27:15;8.9;;;8.0;;
62457;SDS011;48509;52.122;5.250;2023-09-08T08:28:52;11.0;;;8.2;;
62457;SDS011;48509;52.122;5.250;2023-09-08T08:30:29;11.8;;;9.21;;
62457;SDS011;48509;52.122;5.250;2023-09-08T08:33:41;11.8;;;9.1;;
62457;SDS011;48509;52.122;5.250;2023-09-08T08:35:17;10.4;;;8.4;;
62457;SDS011;48509;52.122;5.250;2023-09-08T08:36:53;9.1;;;7.6;;
62457;SDS011;48509;52.122;5.250;2023-09-08T08:40:06;11.9;;;8.4;;
62457;SDS011;48509;52.122;5.250;2023-09-08T08:41:44;12.0;;;8.31;;
62457;SDS011;48509;52.122;5.250;2023-09-08T08:43:21;11.8;;;8.31;;
62457;SDS011;48509;52.122;5.250;2023-09-08T08:46:36;8.81;;;7.2;;
62457;SDS011;48509;52.122;5.250;2023-09-08T08:48:13;9.6;;;8.71;;
62457;SDS011;48509;52.122;5.250;2023-09-08T08:49:50;9.9;;;8.9;;
62457;SDS011;48509;52.122;5.250;2023-09-08T08:51:29;12.5;;;8.1;;
62457;SDS011;48509;52.122;5.250;2023-09-08T08:54:44;8.71;;;7.5;;
62457;SDS011;48509;52.122;5.250;2023-09-08T08:56:20;10.5;;;7.4;;
62457;SDS011;48509;52.122;5.250;2023-09-08T08:57:59;9.6;;;8.31;;
62457;SDS011;48509;52.122;5.250;2023-09-08T08:59:39;9.81;;;7.8;;
62457;SDS011;48509;52.122;5.250;2023-09-08T09:02:52;10.3;;;7.9;;
62457;SDS011;48509;52.122;5.250;2023-09-08T09:04:30;11.5;;;7.9;;
62457;SDS011;48509;52.122;5.250;2023-09-08T09:06:07;8.1;;;7.2;;
62457;SDS011;48509;52.122;5.250;2023-09-08T09:09:20;10.3;;;7.1;;
62457;SDS011;48509;52.122;5.250;2023-09-08T09:10:57;8.0;;;7.2;;
62457;SDS011;48509;52.122;5.250;2023-09-08T09:12:33;9.81;;;7.3;;
62457;SDS011;48509;52.122;5.250;2023-09-08T09:15:48;8.81;;;7.4;;
62457;SDS011;48509;52.122;5.250;2023-09-08T09:17:24;7.2;;;6.4;;
62457;SDS011;48509;52.122;5.250;2023-09-08T09:19:00;8.0;;;6.7;;
62457;SDS011;48509;52.122;5.250;2023-09-08T09:20:36;8.0;;;6.7;;
62457;SDS011;48509;52.122;5.250;2023-09-08T09:23:49;10.21;;;7.6;;
62457;SDS011;48509;52.122;5.250;2023-09-08T09:25:27;9.81;;;7.5;;
62457;SDS011;48509;52.122;5.250;2023-09-08T09:27:04;7.2;;;6.5;;
62457;SDS011;48509;52.122;5.250;2023-09-08T09:30:23;11.8;;;7.9;;
62457;SDS011;48509;52.122;5.250;2023-09-08T09:32:02;7.5;;;6.8;;
62457;SDS011;48509;52.122;5.250;2023-09-08T09:33:40;8.6;;;6.9;;
62457;SDS011;48509;52.122;5.250;2023-09-08T09:35:16;7.3;;;6.6;;
62457;SDS011;48509;52.122;5.250;2023-09-08T09:38:29;11.4;;;7.9;;
62457;SDS011;48509;52.122;5.250;2023-09-08T09:40:05;7.6;;;6.8;;
62457;SDS011;48509;52.122;5.250;2023-09-08T09:41:42;12.4;;;7.4;;
62457;SDS011;48509;52.122;5.250;2023-09-08T09:44:57;11.4;;;7.7;;
62457;SDS011;48509;52.122;5.250;2023-09-08T09:46:36;8.0;;;7.2;;
62457;SDS011;48509;52.122;5.250;2023-09-08T09:48:12;7.8;;;7.0;;
62457;SDS011;48509;52.122;5.250;2023-09-08T09:51:24;8.4;;;6.8;;
62457;SDS011;48509;52.122;5.250;2023-09-08T09:53:01;8.4;;;6.8;;
62457;SDS011;48509;52.122;5.250;2023-09-08T09:54:43;10.9;;;8.0;;
62457;SDS011;48509;52.122;5.250;2023-09-08T09:56:20;8.81;;;7.3;;
62457;SDS011;48509;52.122;5.250;2023-09-08T09:59:35;6.9;;;6.2;;
62457;SDS011;48509;52.122;5.250;2023-09-08T10:01:11;8.6;;;7.8;;
62457;SDS011;48509;52.122;5.250;2023-09-08T10:02:48;11.2;;;7.5;;
62457;SDS011;48509;52.122;5.250;2023-09-08T10:06:02;11.8;;;7.1;;
62457;SDS011;48509;52.122;5.250;2023-09-08T10:07:39;8.81;;;7.2;;
62457;SDS011;48509;52.122;5.250;2023-09-08T10:09:15;8.2;;;6.8;;
62457;SDS011;48509;52.122;5.250;2023-09-08T10:10:52;8.9;;;7.4;;
62457;SDS011;48509;52.122;5.250;2023-09-08T10:14:05;9.0;;;7.3;;
62457;SDS011;48509;52.122;5.250;2023-09-08T10:15:43;8.5;;;7.6;;
62457;SDS011;48509;52.122;5.250;2023-09-08T10:17:21;14.2;;;7.1;;
62457;SDS011;48509;52.122;5.250;2023-09-08T10:20:44;10.7;;;7.8;;
62457;SDS011;48509;52.122;5.250;2023-09-08T10:22:24;8.81;;;7.1;;
62457;SDS011;48509;52.122;5.250;2023-09-08T10:24:08;9.6;;;6.9;;
62457;SDS011;48509;52.122;5.250;2023-09-08T10:25:50;8.31;;;7.4;;
62457;SDS011;48509;52.122;5.250;2023-09-08T10:27:32;8.4;;;6.6;;
62457;SDS011;48509;52.122;5.250;2023-09-08T10:30:46;13.8;;;8.2;;
62457;SDS011;48509;52.122;5.250;2023-09-08T10:32:23;12.3;;;6.8;;
62457;SDS011;48509;52.122;5.250;2023-09-08T10:34:00;9.9;;;7.3;;
62457;SDS011;48509;52.122;5.250;2023-09-08T10:37:18;7.8;;;7.0;;
62457;SDS011;48509;52.122;5.250;2023-09-08T10:39:02;10.4;;;7.0;;
62457;SDS011;48509;52.122;5.250;2023-09-08T10:41:35;9.21;;;7.5;;
62457;SDS011;48509;52.122;5.250;2023-09-08T10:43:11;11.1;;;7.5;;
62457;SDS011;48509;52.122;5.250;2023-09-08T10:44:56;10.5;;;7.7;;
62457;SDS011;48509;52.122;5.250;2023-09-08T10:46:35;9.71;;;7.9;;
62457;SDS011;48509;52.122;5.250;2023-09-08T10:49:50;10.8;;;6.8;;
62457;SDS011;48509;52.122;5.250;2023-09-08T10:51:27;10.6;;;7.3;;
62457;SDS011;48509;52.122;5.250;2023-09-08T10:54:49;11.0;;;7.2;;
62457;SDS011;48509;52.122;5.250;2023-09-08T10:58:04;9.1;;;6.7;;
62457;SDS011;48509;52.122;5.250;2023-09-08T10:59:44;10.3;;;6.2;;
62457;SDS011;48509;52.122;5.250;2023-09-08T11:01:21;9.1;;;7.2;;
62457;SDS011;48509;52.122;5.250;2023-09-08T11:04:34;8.5;;;7.0;;
62457;SDS011;48509;52.122;5.250;2023-09-08T11:06:10;9.5;;;7.0;;
62457;SDS011;48509;52.122;5.250;2023-09-08T11:07:47;8.81;;;6.2;;
62457;SDS011;48509;52.122;5.250;2023-09-08T11:09:24;7.4;;;6.2;;
62457;SDS011;48509;52.122;5.250;2023-09-08T11:12:37;10.6;;;7.1;;
62457;SDS011;48509;52.122;5.250;2023-09-08T11:14:13;6.8;;;6.1;;
62457;SDS011;48509;52.122;5.250;2023-09-08T11:15:51;7.8;;;6.5;;
62457;SDS011;48509;52.122;5.250;2023-09-08T11:19:04;12.4;;;8.1;;
62457;SDS011;48509;52.122;5.250;2023-09-08T11:20:40;9.0;;;6.6;;
62457;SDS011;48509;52.122;5.250;2023-09-08T11:22:16;11.2;;;7.7;;
62457;SDS011;48509;52.122;5.250;2023-09-08T11:25:29;13.1;;;8.31;;
62457;SDS011;48509;52.122;5.250;2023-09-08T11:27:05;11.8;;;7.7;;
62457;SDS011;48509;52.122;5.250;2023-09-08T11:28:42;9.71;;;7.2;;
62457;SDS011;48509;52.122;5.250;2023-09-08T11:30:19;9.71;;;6.7;;
62457;SDS011;48509;52.122;5.250;2023-09-08T11:33:34;12.4;;;7.1;;
62457;SDS011;48509;52.122;5.250;2023-09-08T11:35:11;12.4;;;7.1;;
62457;SDS011;48509;52.122;5.250;2023-09-08T11:36:48;8.31;;;6.8;;
62457;SDS011;48509;52.122;5.250;2023-09-08T11:40:01;9.31;;;6.5;;
62457;SDS011;48509;52.122;5.250;2023-09-08T11:41:37;10.4;;;6.9;;
62457;SDS011;48509;52.122;5.250;2023-09-08T11:43:13;8.5;;;7.0;;
62457;SDS011;48509;52.122;5.250;2023-09-08T11:46:25;12.4;;;7.1;;
62457;SDS011;48509;52.122;5.250;2023-09-08T11:48:03;8.0;;;6.9;;
62457;SDS011;48509;52.122;5.250;2023-09-08T11:49:40;7.8;;;6.6;;
62457;SDS011;48509;52.122;5.250;2023-09-08T11:51:17;7.5;;;6.1;;
62457;SDS011;48509;52.122;5.250;2023-09-08T11:54:35;8.31;;;6.5;;
62457;SDS011;48509;52.122;5.250;2023-09-08T11:56:13;7.5;;;6.2;;
62457;SDS011;48509;52.122;5.250;2023-09-08T11:57:49;9.1;;;6.7;;
62457;SDS011;48509;52.122;5.250;2023-09-08T12:01:07;9.1;;;6.7;;
62457;SDS011;48509;52.122;5.250;2023-09-08T12:02:43;8.31;;;5.9;;
62457;SDS011;48509;52.122;5.250;2023-09-08T12:04:20;7.7;;;6.3;;
62457;SDS011;48509;52.122;5.250;2023-09-08T12:05:56;11.7;;;6.7;;
62457;SDS011;48509;52.122;5.250;2023-09-08T12:09:09;6.9;;;5.8;;
62457;SDS011;48509;52.122;5.250;2023-09-08T12:10:45;9.0;;;7.0;;
62457;SDS011;48509;52.122;5.250;2023-09-08T12:12:21;11.7;;;6.5;;
62457;SDS011;48509;52.122;5.250;2023-09-08T12:15:36;8.5;;;6.4;;
62457;SDS011;48509;52.122;5.250;2023-09-08T12:17:14;7.3;;;5.5;;
62457;SDS011;48509;52.122;5.250;2023-09-08T12:18:50;6.6;;;5.9;;
62457;SDS011;48509;52.122;5.250;2023-09-08T12:22:03;8.4;;;6.2;;
62457;SDS011;48509;52.122;5.250;2023-09-08T12:23:48;9.0;;;6.0;;
62457;SDS011;48509;52.122;5.250;2023-09-08T12:25:26;8.31;;;6.9;;
62457;SDS011;48509;52.122;5.250;2023-09-08T12:27:02;7.1;;;6.4;;
62457;SDS011;48509;52.122;5.250;2023-09-08T12:30:16;9.21;;;6.3;;
62457;SDS011;48509;52.122;5.250;2023-09-08T12:31:53;12.4;;;6.7;;
62457;SDS011;48509;52.122;5.250;2023-09-08T12:33:29;10.0;;;6.7;;
62457;SDS011;48509;52.122;5.250;2023-09-08T12:36:43;7.2;;;6.5;;
62457;SDS011;48509;52.122;5.250;2023-09-08T12:38:19;6.9;;;6.0;;
62457;SDS011;48509;52.122;5.250;2023-09-08T12:39:56;6.1;;;5.4;;
62457;SDS011;48509;52.122;5.250;2023-09-08T12:41:32;7.3;;;5.7;;
62457;SDS011;48509;52.122;5.250;2023-09-08T12:44:44;14.3;;;6.6;;
62457;SDS011;48509;52.122;5.250;2023-09-08T12:46:20;20.8;;;5.8;;